Venez Explorer Les Airs Avec Nous!

Que ce soit pour un vol de découverte, pour apprendre l’art du pilotage ou pour voyager, venez nous rejoindre.

Information en heures locale pour LFDL
23 March 2019

Metar
LFBI 231800Z AUTO 02006KT CAVOK 15/05 Q1026 NOSIG

Lever du soleil aéronautique : 05:27

Lever du soleil : 05:57

Coucher du soleil :18:14

Coucher du soleil aéronautique :18:44

Contacts

Téléphone

Club:
07-66-57-42-61

Michel Richez (président):
06-52-73-09-01

Adresse

Aéroclub de Loudun
Bellevue
86200 Loudun

Vous vous trouvez sur un site temporaire.

Un site définitif sera disponible rapidement, en attendant vous pouvez nous contacter via les informations ci-dessus

Fermer le menu